Welcome, Minnesota
Current Conditions -  °F | °C
As of 11:35 AM on Monday 22 Dec 2014 (Local Time) from KFRM Reporting Station
Overcast Overcast  
Wind Chill: 28°   Ceiling: 500
Heat Index: 37°   Visibility: 7mi
Dew Point: 34°   Wind: 16mph
Humidity: 87%   Direction: 150°SSE
Pressure: 29.53"   Gusts: NA
Location:  43.67°N, 94.62°W
Report Text: KFRM 221735Z AUTO 15014KT 7SM OVC005 03/01 A2953 RMK AO1
Loading
Personal Weather Stations






























Interactive Weather Map New forecast layout! Learn more

10-Day Weather Forecast

Advertisements
Track Severe Weather on mobile